Time;durP1;ratioP1;P1;durP2;ratioP2;P2;SDS_P1;SDS_P2;PMS_P1;PMS_P2;Temp;Humidity;BMP_temperature;BMP_pressure;BME280_temperature;BME280_humidity;BME280_pressure;Samples;Min_cycle;Max_cycle;Signal;HPM_P1;HPM_P2
2024/04/11 00:00:49;;;;;;;3.40;2.93;;;;;;;;;;6694033;21;20293;-80
2024/04/11 00:03:18;;;;;;;4.13;3.00;;;;;;;;;;6697764;21;20222;-80
2024/04/11 00:05:47;;;;;;;3.83;3.27;;;;;;;;;;6696254;21;20316;-80
2024/04/11 00:08:19;;;;;;;3.90;2.90;;;;;;;;;;6652776;21;20228;-80
2024/04/11 00:10:48;;;;;;;3.77;3.07;;;;;;;;;;6697412;21;20287;-81
2024/04/11 00:13:18;;;;;;;3.53;2.90;;;;;;;;;;6698283;21;20263;-81
2024/04/11 00:15:53;;;;;;;4.33;2.97;;;;;;;;;;6698161;21;20292;-81
2024/04/11 00:18:23;;;;;;;4.87;3.30;;;;;;;;;;6698107;21;20219;-81
2024/04/11 00:20:54;;;;;;;4.17;3.20;;;;;;;;;;6652027;21;20273;-81
2024/04/11 00:23:27;;;;;;;3.90;3.30;;;;;;;;;;6697826;21;20227;-81
2024/04/11 00:25:57;;;;;;;4.27;3.20;;;;;;;;;;6697487;21;20278;-81
2024/04/11 00:28:26;;;;;;;4.20;3.40;;;;;;;;;;6698440;21;20282;-81
2024/04/11 00:30:54;;;;;;;3.80;3.17;;;;;;;;;;6698646;21;20283;-81
2024/04/11 00:33:23;;;;;;;3.87;3.23;;;;;;;;;;6653114;21;20219;-81
2024/04/11 00:35:53;;;;;;;3.17;2.83;;;;;;;;;;6699221;21;20690;-81
2024/04/11 00:38:23;;;;;;;3.27;2.90;;;;;;;;;;6698396;21;20262;-81
2024/04/11 00:40:58;;;;;;;5.17;3.50;;;;;;;;;;6653005;21;20258;-81
2024/04/11 00:43:32;;;;;;;5.13;3.20;;;;;;;;;;6699003;21;20234;-81
2024/04/11 00:46:00;;;;;;;4.73;3.57;;;;;;;;;;6651711;21;20267;-80
2024/04/11 00:48:27;;;;;;;4.27;3.40;;;;;;;;;;6697770;21;20336;-81
2024/04/11 00:50:58;;;;;;;3.90;3.40;;;;;;;;;;6693249;21;20258;-80
2024/04/11 00:53:27;;;;;;;3.17;2.90;;;;;;;;;;6693608;21;20222;-81
2024/04/11 00:55:55;;;;;;;3.50;3.17;;;;;;;;;;6693368;21;20245;-80
2024/04/11 00:58:22;;;;;;;3.07;2.80;;;;;;;;;;6693716;21;20219;-80
2024/04/11 01:00:50;;;;;;;5.30;3.27;;;;;;;;;;6647393;21;20214;-80
2024/04/11 01:03:17;;;;;;;3.50;3.03;;;;;;;;;;6693311;21;20223;-80
2024/04/11 01:05:45;;;;;;;3.40;3.10;;;;;;;;;;6693532;21;20231;-80
2024/04/11 01:08:12;;;;;;;3.73;3.20;;;;;;;;;;6693005;21;20265;-80
2024/04/11 01:10:41;;;;;;;3.10;2.80;;;;;;;;;;6645072;21;20223;-79
2024/04/11 01:13:09;;;;;;;4.87;3.43;;;;;;;;;;6691665;21;20678;-79
2024/04/11 01:15:39;;;;;;;5.33;3.20;;;;;;;;;;6694293;21;20253;-81
2024/04/11 01:18:07;;;;;;;3.67;3.00;;;;;;;;;;6695211;21;20786;-80
2024/04/11 01:20:37;;;;;;;4.10;2.77;;;;;;;;;;6694206;21;20264;-79
2024/04/11 01:23:08;;;;;;;3.90;3.20;;;;;;;;;;6647594;21;20222;-80
2024/04/11 01:25:36;;;;;;;4.27;2.90;;;;;;;;;;6695202;21;20202;-80
2024/04/11 01:28:04;;;;;;;3.60;2.80;;;;;;;;;;6695506;21;20215;-81
2024/04/11 01:30:32;;;;;;;2.97;2.77;;;;;;;;;;6648291;21;20223;-80
2024/04/11 01:33:09;;;;;;;4.07;3.33;;;;;;;;;;6649331;21;20308;-80
2024/04/11 01:35:39;;;;;;;5.33;3.57;;;;;;;;;;6694639;21;20638;-80
2024/04/11 01:38:07;;;;;;;4.47;3.03;;;;;;;;;;6692205;21;20296;-80
2024/04/11 01:40:36;;;;;;;3.87;3.10;;;;;;;;;;6695123;21;20215;-80
2024/04/11 01:43:05;;;;;;;4.40;2.90;;;;;;;;;;6695845;21;20260;-81
2024/04/11 01:45:33;;;;;;;3.73;3.00;;;;;;;;;;6695848;21;20255;-81
2024/04/11 01:48:01;;;;;;;4.40;3.40;;;;;;;;;;6696146;21;20319;-80
2024/04/11 01:50:30;;;;;;;5.40;3.10;;;;;;;;;;6695612;21;20215;-80
2024/04/11 01:52:58;;;;;;;3.97;3.10;;;;;;;;;;6695676;21;20219;-80
2024/04/11 01:55:26;;;;;;;4.73;3.40;;;;;;;;;;6695288;21;20235;-80
2024/04/11 01:57:53;;;;;;;3.77;3.07;;;;;;;;;;6696178;21;20227;-80
2024/04/11 02:00:26;;;;;;;3.93;3.30;;;;;;;;;;6694747;21;20226;-81
2024/04/11 02:02:54;;;;;;;3.93;3.13;;;;;;;;;;6650105;21;20223;-80
2024/04/11 02:05:22;;;;;;;3.97;3.30;;;;;;;;;;6695537;21;20613;-81
2024/04/11 02:07:52;;;;;;;3.97;3.40;;;;;;;;;;6648426;21;20231;-80
2024/04/11 02:10:19;;;;;;;6.40;3.30;;;;;;;;;;6694169;21;20690;-81
2024/04/11 02:12:48;;;;;;;5.27;3.23;;;;;;;;;;6694147;21;20231;-80
2024/04/11 02:15:17;;;;;;;4.03;3.50;;;;;;;;;;6695002;21;20279;-80
2024/04/11 02:17:47;;;;;;;4.30;3.30;;;;;;;;;;6698670;21;20223;-81
2024/04/11 02:20:41;;;;;;;4.10;3.20;;;;;;;;;;6629822;21;20278;-82
2024/04/11 02:23:39;;;;;;;5.40;3.20;;;;;;;;;;6702011;21;20265;-82
2024/04/11 02:26:11;;;;;;;4.23;2.97;;;;;;;;;;6654835;21;20259;-82
2024/04/11 02:28:40;;;;;;;3.53;3.20;;;;;;;;;;6701566;21;20265;-83
2024/04/11 02:31:36;;;;;;;4.23;2.93;;;;;;;;;;6696890;21;20270;-82
2024/04/11 02:34:07;;;;;;;3.97;3.20;;;;;;;;;;6704165;21;20266;-82
2024/04/11 02:36:54;;;;;;;5.47;3.50;;;;;;;;;;6700891;21;20272;-82
2024/04/11 02:39:29;;;;;;;3.57;3.27;;;;;;;;;;6704080;21;20261;-81
2024/04/11 02:42:03;;;;;;;5.10;3.87;;;;;;;;;;6702225;21;20262;-81
2024/04/11 02:44:34;;;;;;;4.57;3.17;;;;;;;;;;6702806;21;20226;-82
2024/04/11 02:47:08;;;;;;;4.20;3.53;;;;;;;;;;6657563;21;20297;-82
2024/04/11 02:50:01;;;;;;;3.63;3.20;;;;;;;;;;6660959;21;20343;-82
2024/04/11 02:52:49;;;;;;;4.17;3.13;;;;;;;;;;6700305;21;20226;-81
2024/04/11 02:55:34;;;;;;;3.87;3.33;;;;;;;;;;6657350;21;20290;-83
2024/04/11 02:58:20;;;;;;;7.17;3.87;;;;;;;;;;6665288;21;20223;-83
2024/04/11 03:00:58;;;;;;;4.07;3.23;;;;;;;;;;6654193;21;20239;-82
2024/04/11 03:03:26;;;;;;;4.63;3.40;;;;;;;;;;6699541;21;20222;-82
2024/04/11 03:06:03;;;;;;;4.93;3.50;;;;;;;;;;6699240;21;20243;-82
2024/04/11 03:08:31;;;;;;;5.73;3.37;;;;;;;;;;6699621;21;20227;-82
2024/04/11 03:10:58;;;;;;;3.80;3.47;;;;;;;;;;6698236;21;20223;-82
2024/04/11 03:13:29;;;;;;;3.63;3.20;;;;;;;;;;6699391;21;20266;-82
2024/04/11 03:15:58;;;;;;;4.00;3.60;;;;;;;;;;6700816;21;20223;-82
2024/04/11 03:18:34;;;;;;;3.70;3.40;;;;;;;;;;6701316;21;20273;-82
2024/04/11 03:21:05;;;;;;;4.40;3.57;;;;;;;;;;6700447;21;20222;-81
2024/04/11 03:23:34;;;;;;;5.37;3.50;;;;;;;;;;6698007;21;20305;-81
2024/04/11 03:26:02;;;;;;;3.87;3.47;;;;;;;;;;6645645;21;20327;-81
2024/04/11 03:28:30;;;;;;;4.30;3.50;;;;;;;;;;6692510;21;20335;-81
2024/04/11 03:31:00;;;;;;;4.87;3.13;;;;;;;;;;6693428;21;20231;-82
2024/04/11 03:33:28;;;;;;;4.07;3.23;;;;;;;;;;6648662;21;20223;-82
2024/04/11 03:36:00;;;;;;;5.30;3.80;;;;;;;;;;6692630;21;20686;-81
2024/04/11 03:38:29;;;;;;;4.10;3.13;;;;;;;;;;6692946;21;20219;-81
2024/04/11 03:41:05;;;;;;;5.00;4.00;;;;;;;;;;6696929;21;20227;-82
2024/04/11 03:43:37;;;;;;;4.27;3.50;;;;;;;;;;6696392;21;20219;-81
2024/04/11 03:46:07;;;;;;;4.00;3.40;;;;;;;;;;6696433;21;20227;-81
2024/04/11 03:48:35;;;;;;;4.30;3.63;;;;;;;;;;6696226;21;20222;-81
2024/04/11 03:51:17;;;;;;;3.90;3.40;;;;;;;;;;6696374;21;20261;-81
2024/04/11 03:53:51;;;;;;;4.23;3.60;;;;;;;;;;6695440;21;20327;-82
2024/04/11 03:56:20;;;;;;;4.67;3.80;;;;;;;;;;6696433;21;20884;-81
2024/04/11 03:58:48;;;;;;;6.20;3.73;;;;;;;;;;6695658;21;20270;-81
2024/04/11 04:01:18;;;;;;;6.87;3.70;;;;;;;;;;6696118;21;20659;-81
2024/04/11 04:03:46;;;;;;;4.67;3.30;;;;;;;;;;6695762;21;20223;-81
2024/04/11 04:06:14;;;;;;;4.40;3.53;;;;;;;;;;6694537;21;20231;-82
2024/04/11 04:08:45;;;;;;;4.60;3.40;;;;;;;;;;6695326;21;20227;-82
2024/04/11 04:11:18;;;;;;;4.73;3.63;;;;;;;;;;6694634;21;20266;-81
2024/04/11 04:13:45;;;;;;;5.97;3.50;;;;;;;;;;6695335;21;20219;-83
2024/04/11 04:16:16;;;;;;;7.33;3.70;;;;;;;;;;6695212;21;20289;-81
2024/04/11 04:18:52;;;;;;;4.57;3.30;;;;;;;;;;6693316;21;20227;-80
2024/04/11 04:21:26;;;;;;;5.07;3.40;;;;;;;;;;6693135;21;20218;-81
2024/04/11 04:24:02;;;;;;;4.63;3.47;;;;;;;;;;6694767;21;20745;-82
2024/04/11 04:26:31;;;;;;;4.33;3.53;;;;;;;;;;6695163;21;20265;-82
2024/04/11 04:29:00;;;;;;;5.73;3.70;;;;;;;;;;6695582;21;20223;-81
2024/04/11 04:31:30;;;;;;;4.93;3.53;;;;;;;;;;6695453;21;20331;-81
2024/04/11 04:34:00;;;;;;;4.73;3.80;;;;;;;;;;6697079;21;20529;-82
2024/04/11 04:36:42;;;;;;;4.90;3.67;;;;;;;;;;6696820;21;20694;-82
2024/04/11 04:39:16;;;;;;;4.80;3.37;;;;;;;;;;6694021;21;20257;-82
2024/04/11 04:41:44;;;;;;;5.00;3.60;;;;;;;;;;6698982;21;20231;-82
2024/04/11 04:44:13;;;;;;;7.40;3.60;;;;;;;;;;6653870;21;20231;-82
2024/04/11 04:46:41;;;;;;;4.63;3.60;;;;;;;;;;6698516;21;20218;-82
2024/04/11 04:49:10;;;;;;;4.70;3.70;;;;;;;;;;6651474;21;20222;-82
2024/04/11 04:51:39;;;;;;;7.13;3.43;;;;;;;;;;6696615;21;20219;-82
2024/04/11 04:54:11;;;;;;;7.30;3.40;;;;;;;;;;6695611;21;20235;-82
2024/04/11 04:56:41;;;;;;;5.10;3.17;;;;;;;;;;6696470;21;20249;-82
2024/04/11 04:59:11;;;;;;;4.83;3.53;;;;;;;;;;6696872;21;20219;-82
2024/04/11 05:01:40;;;;;;;4.70;3.27;;;;;;;;;;6697195;21;20218;-82
2024/04/11 05:04:13;;;;;;;6.23;3.63;;;;;;;;;;6700334;21;20219;-82
2024/04/11 05:06:44;;;;;;;6.83;3.37;;;;;;;;;;6699337;21;20274;-82
2024/04/11 05:09:12;;;;;;;5.77;3.57;;;;;;;;;;6696690;21;20231;-81
2024/04/11 05:11:44;;;;;;;4.40;3.10;;;;;;;;;;6698576;21;20308;-82
2024/04/11 05:14:12;;;;;;;6.63;3.43;;;;;;;;;;6697539;21;20176;-82
2024/04/11 05:16:43;;;;;;;4.47;2.93;;;;;;;;;;6697160;21;20215;-82
2024/04/11 05:19:15;;;;;;;3.20;2.90;;;;;;;;;;6696543;21;20252;-82
2024/04/11 05:21:45;;;;;;;5.60;2.97;;;;;;;;;;6697548;21;20234;-82
2024/04/11 05:24:12;;;;;;;3.07;2.80;;;;;;;;;;6650845;21;20755;-82
2024/04/11 05:26:41;;;;;;;3.83;2.90;;;;;;;;;;6695625;21;20604;-82
2024/04/11 05:29:08;;;;;;;4.07;3.03;;;;;;;;;;6698216;21;20215;-82
2024/04/11 05:31:37;;;;;;;3.63;3.17;;;;;;;;;;6698330;21;20263;-82
2024/04/11 05:34:06;;;;;;;5.57;3.07;;;;;;;;;;6695727;21;20302;-80
2024/04/11 05:36:39;;;;;;;3.30;3.00;;;;;;;;;;6694031;21;20215;-81
2024/04/11 05:39:14;;;;;;;3.70;2.80;;;;;;;;;;6649543;21;20228;-81
2024/04/11 05:41:45;;;;;;;3.20;2.90;;;;;;;;;;6696066;21;20175;-81
2024/04/11 05:44:12;;;;;;;3.13;2.73;;;;;;;;;;6647773;21;20584;-82
2024/04/11 05:46:40;;;;;;;4.07;3.13;;;;;;;;;;6698662;21;20249;-82
2024/04/11 05:49:20;;;;;;;4.30;2.77;;;;;;;;;;6702458;21;20198;-80
2024/04/11 05:51:47;;;;;;;3.57;2.60;;;;;;;;;;6700233;21;20220;-81
2024/04/11 05:54:16;;;;;;;4.37;2.90;;;;;;;;;;6700685;21;20215;-81
2024/04/11 05:56:48;;;;;;;5.63;2.87;;;;;;;;;;6703253;21;20211;-83
2024/04/11 05:59:19;;;;;;;7.03;2.90;;;;;;;;;;6702343;21;20249;-81
2024/04/11 06:01:50;;;;;;;4.73;2.87;;;;;;;;;;6611805;21;20223;-81
2024/04/11 06:04:25;;;;;;;4.40;2.90;;;;;;;;;;6653784;21;20242;-81
2024/04/11 06:06:54;;;;;;;4.43;2.80;;;;;;;;;;6702118;21;20278;-80
2024/04/11 06:09:22;;;;;;;4.83;2.63;;;;;;;;;;6703218;21;20213;-81
2024/04/11 06:11:53;;;;;;;3.20;2.90;;;;;;;;;;6703321;21;20391;-80
2024/04/11 06:14:21;;;;;;;4.47;2.70;;;;;;;;;;6704123;21;20295;-80
2024/04/11 06:16:51;;;;;;;3.47;2.60;;;;;;;;;;6701986;21;20260;-80
2024/04/11 06:19:18;;;;;;;3.63;2.70;;;;;;;;;;6655022;21;20325;-80
2024/04/11 06:21:53;;;;;;;4.07;2.70;;;;;;;;;;6701097;21;20259;-81
2024/04/11 06:24:21;;;;;;;4.70;2.60;;;;;;;;;;6612886;21;20216;-80
2024/04/11 06:26:50;;;;;;;3.43;2.53;;;;;;;;;;6657767;21;20267;-81
2024/04/11 06:29:22;;;;;;;4.27;2.80;;;;;;;;;;6706888;21;20217;-81
2024/04/11 06:32:07;;;;;;;3.00;2.40;;;;;;;;;;6661163;21;20219;-81
2024/04/11 06:34:51;;;;;;;3.40;2.43;;;;;;;;;;6707140;21;20213;-81
2024/04/11 06:37:27;;;;;;;3.60;2.63;;;;;;;;;;6621842;21;20226;-82
2024/04/11 06:40:12;;;;;;;4.37;2.47;;;;;;;;;;6709148;21;20264;-83
2024/04/11 06:43:38;;;;;;;4.13;2.87;;;;;;;;;;6529891;21;20256;-81
2024/04/11 06:46:13;;;;;;;3.83;3.23;;;;;;;;;;6705174;21;20264;-81
2024/04/11 06:48:57;;;;;;;3.90;2.80;;;;;;;;;;6662269;21;20223;-81
2024/04/11 06:51:30;;;;;;;5.47;3.47;;;;;;;;;;6662233;21;20172;-81
2024/04/11 06:54:04;;;;;;;4.87;2.90;;;;;;;;;;6706681;21;20233;-81
2024/04/11 06:56:37;;;;;;;3.10;2.80;;;;;;;;;;6707431;21;20207;-82
2024/04/11 06:59:17;;;;;;;5.37;2.57;;;;;;;;;;6660917;21;20283;-81
2024/04/11 07:01:52;;;;;;;5.57;2.90;;;;;;;;;;6705804;21;20233;-82
2024/04/11 07:08:20;;;;;;;5.67;3.13;;;;;;;;;;6694698;21;20296;-81
2024/04/11 07:10:53;;;;;;;5.43;3.07;;;;;;;;;;6703465;21;20218;-81
2024/04/11 07:13:23;;;;;;;4.30;2.93;;;;;;;;;;6704119;21;20188;-81
2024/04/11 07:15:52;;;;;;;7.13;3.00;;;;;;;;;;6611497;21;20257;-81
2024/04/11 07:18:22;;;;;;;2.90;2.70;;;;;;;;;;6702248;21;20235;-81
2024/04/11 07:20:53;;;;;;;4.70;2.93;;;;;;;;;;6703205;21;20218;-81
2024/04/11 07:23:24;;;;;;;4.23;2.83;;;;;;;;;;6658025;21;20222;-81
2024/04/11 07:25:52;;;;;;;4.33;2.83;;;;;;;;;;6705217;21;20217;-81
2024/04/11 07:28:31;;;;;;;4.83;3.07;;;;;;;;;;6706263;21;20179;-81
2024/04/11 07:31:04;;;;;;;5.20;3.00;;;;;;;;;;6658408;21;20325;-81
2024/04/11 07:33:33;;;;;;;4.33;3.07;;;;;;;;;;6657485;21;20219;-81
2024/04/11 07:36:01;;;;;;;5.47;3.40;;;;;;;;;;6658287;21;20215;-80
2024/04/11 07:38:57;;;;;;;3.77;2.80;;;;;;;;;;6705613;21;20207;-80
2024/04/11 07:41:44;;;;;;;5.77;2.93;;;;;;;;;;6654412;21;20527;-80
2024/04/11 07:44:17;;;;;;;5.10;3.10;;;;;;;;;;6700188;21;20237;-80
2024/04/11 07:46:46;;;;;;;3.37;2.70;;;;;;;;;;6654689;21;20176;-80
2024/04/11 07:49:34;;;;;;;4.33;2.80;;;;;;;;;;6661099;21;20219;-80
2024/04/11 07:52:02;;;;;;;4.37;2.93;;;;;;;;;;6653856;21;20285;-80
2024/04/11 07:54:31;;;;;;;3.07;2.60;;;;;;;;;;6653359;21;20270;-80
2024/04/11 07:57:11;;;;;;;4.07;2.70;;;;;;;;;;6700078;21;20211;-80
2024/04/11 07:59:38;;;;;;;4.40;3.00;;;;;;;;;;6701354;21;20343;-80
2024/04/11 08:02:06;;;;;;;3.40;2.87;;;;;;;;;;6610260;21;20258;-80
2024/04/11 08:04:34;;;;;;;3.40;2.87;;;;;;;;;;6701707;21;20215;-80
2024/04/11 08:07:02;;;;;;;3.93;2.60;;;;;;;;;;6644143;21;20545;-80
2024/04/11 08:09:44;;;;;;;4.30;2.80;;;;;;;;;;6645871;21;20266;-80
2024/04/11 08:12:17;;;;;;;4.80;3.50;;;;;;;;;;6644244;21;20258;-80
2024/04/11 08:14:45;;;;;;;5.07;2.70;;;;;;;;;;6688647;21;20239;-80
2024/04/11 08:17:13;;;;;;;4.93;3.00;;;;;;;;;;6646140;21;20216;-80
2024/04/11 08:19:43;;;;;;;4.37;3.10;;;;;;;;;;6647884;21;20216;-80
2024/04/11 08:22:28;;;;;;;4.43;2.57;;;;;;;;;;6646737;21;20176;-80
2024/04/11 08:24:56;;;;;;;4.87;3.00;;;;;;;;;;6646860;21;20212;-80
2024/04/11 08:27:24;;;;;;;7.73;3.23;;;;;;;;;;6647692;21;20262;-80
2024/04/11 08:29:53;;;;;;;4.13;2.60;;;;;;;;;;6648751;21;20280;-81
2024/04/11 09:10:50;;;;;;;5.10;2.67;;;;;;;;;;6723251;21;20273;-93
2024/04/11 09:13:46;;;;;;;3.13;2.37;;;;;;;;;;6667173;21;20215;-93
2024/04/11 09:20:00;;;;;;;3.13;2.37;;;;;;;;;;6737453;21;20362;-90
2024/04/11 09:22:28;;;;;;;6.20;2.83;;;;;;;;;;6738744;21;20707;-90
2024/04/11 09:24:57;;;;;;;3.90;2.80;;;;;;;;;;6693047;21;20230;-91
2024/04/11 09:27:25;;;;;;;3.40;2.50;;;;;;;;;;6693384;21;20330;-91
2024/04/11 09:29:53;;;;;;;5.00;2.70;;;;;;;;;;6693335;21;20278;-90
2024/04/11 09:32:28;;;;;;;4.33;2.70;;;;;;;;;;6693053;21;20322;-92
2024/04/11 09:34:58;;;;;;;4.67;3.03;;;;;;;;;;6738455;21;20238;-91
2024/04/11 09:37:27;;;;;;;3.63;2.30;;;;;;;;;;6691980;21;20688;-90
2024/04/11 09:40:11;;;;;;;4.03;2.60;;;;;;;;;;6736748;21;20314;-91
2024/04/11 09:42:40;;;;;;;4.13;2.70;;;;;;;;;;6695262;21;20255;-90
2024/04/11 09:45:13;;;;;;;4.03;2.70;;;;;;;;;;6740112;21;20221;-90
2024/04/11 09:47:44;;;;;;;3.13;2.50;;;;;;;;;;6739968;21;20719;-90
2024/04/11 09:50:16;;;;;;;5.60;2.80;;;;;;;;;;6739723;21;20230;-90
2024/04/11 09:52:45;;;;;;;4.30;2.30;;;;;;;;;;6694507;21;20252;-90
2024/04/11 09:55:17;;;;;;;3.57;2.50;;;;;;;;;;6740166;21;20229;-88
2024/04/11 09:57:46;;;;;;;4.03;2.30;;;;;;;;;;6695720;21;20222;-91
2024/04/11 10:03:42;;;;;;;3.47;2.53;;;;;;;;;;6688481;21;20305;-90
2024/04/11 10:06:14;;;;;;;5.73;2.57;;;;;;;;;;6640420;21;20226;-91
2024/04/11 10:08:45;;;;;;;3.87;2.47;;;;;;;;;;6640789;21;20230;-90
2024/04/11 10:11:17;;;;;;;5.03;2.70;;;;;;;;;;6596264;21;20324;-91
2024/04/11 10:13:49;;;;;;;5.47;2.50;;;;;;;;;;6639882;21;20244;-90
2024/04/11 10:16:29;;;;;;;4.07;2.77;;;;;;;;;;6596782;21;20320;-90
2024/04/11 10:19:13;;;;;;;3.10;2.77;;;;;;;;;;6640361;21;20234;-90
2024/04/11 10:21:44;;;;;;;4.40;2.87;;;;;;;;;;6596239;21;20699;-91
2024/04/11 10:24:26;;;;;;;3.10;2.80;;;;;;;;;;6599162;21;20232;-90
2024/04/11 10:27:05;;;;;;;4.83;2.70;;;;;;;;;;6640128;21;20324;-91
2024/04/11 10:29:34;;;;;;;3.60;2.90;;;;;;;;;;6596296;21;20227;-91
2024/04/11 10:32:02;;;;;;;4.73;2.90;;;;;;;;;;6640351;21;20232;-90
2024/04/11 10:34:34;;;;;;;5.57;3.00;;;;;;;;;;6639992;21;20840;-90
2024/04/11 10:37:02;;;;;;;4.27;2.57;;;;;;;;;;6595822;21;20224;-90
2024/04/11 10:39:35;;;;;;;3.90;2.67;;;;;;;;;;6595858;21;20238;-90
2024/04/11 10:42:07;;;;;;;3.70;2.70;;;;;;;;;;6596010;21;20228;-90
2024/04/11 10:44:37;;;;;;;3.50;2.77;;;;;;;;;;6639561;21;20229;-90
2024/04/11 10:47:08;;;;;;;3.77;2.80;;;;;;;;;;6684023;21;20331;-90
2024/04/11 10:49:42;;;;;;;3.33;2.37;;;;;;;;;;6686251;21;20255;-90
2024/04/11 10:52:10;;;;;;;3.80;2.60;;;;;;;;;;6684037;21;20229;-91
2024/04/11 10:54:39;;;;;;;3.03;2.40;;;;;;;;;;6585928;21;20322;-92
2024/04/11 10:57:12;;;;;;;2.97;2.23;;;;;;;;;;6629984;21;20332;-90
2024/04/11 10:59:50;;;;;;;3.53;2.33;;;;;;;;;;6630601;21;20262;-90
2024/04/11 11:02:23;;;;;;;4.47;2.20;;;;;;;;;;6609594;21;20346;-91
2024/04/11 11:04:55;;;;;;;3.07;2.07;;;;;;;;;;6639165;21;20229;-90
2024/04/11 11:07:23;;;;;;;3.87;2.37;;;;;;;;;;6639388;21;20257;-91
2024/04/11 11:09:57;;;;;;;3.23;2.23;;;;;;;;;;6639465;21;20231;-89
2024/04/11 11:12:25;;;;;;;4.00;2.20;;;;;;;;;;6595378;21;20321;-89
2024/04/11 11:14:55;;;;;;;3.93;2.10;;;;;;;;;;6595838;21;20228;-90
2024/04/11 11:17:27;;;;;;;4.73;2.10;;;;;;;;;;6595660;21;20234;-90
2024/04/11 11:19:55;;;;;;;3.27;2.10;;;;;;;;;;6595964;21;20228;-90
2024/04/11 11:22:37;;;;;;;4.03;2.20;;;;;;;;;;6595602;21;20268;-90
2024/04/11 11:25:08;;;;;;;4.13;2.10;;;;;;;;;;6595917;21;20310;-90
2024/04/11 11:27:38;;;;;;;4.53;2.17;;;;;;;;;;6640536;21;20324;-90
2024/04/11 11:30:06;;;;;;;4.73;2.20;;;;;;;;;;6683482;21;20223;-91
2024/04/11 11:32:37;;;;;;;4.40;2.17;;;;;;;;;;6596129;21;20237;-90
2024/04/11 11:35:07;;;;;;;3.70;2.20;;;;;;;;;;6595045;21;20225;-90
2024/04/11 11:37:38;;;;;;;2.57;2.03;;;;;;;;;;6595987;21;20610;-90
2024/04/11 11:42:56;;;;;;;3.33;1.93;;;;;;;;;;6639570;21;20696;-91
2024/04/11 11:45:27;;;;;;;4.30;2.30;;;;;;;;;;6595459;21;20327;-90
2024/04/11 11:48:12;;;;;;;4.37;2.43;;;;;;;;;;6639574;21;20254;-90
2024/04/11 11:50:45;;;;;;;3.63;2.57;;;;;;;;;;6597048;21;20712;-90
2024/04/11 11:53:32;;;;;;;5.80;3.50;;;;;;;;;;6638869;21;20239;-90
2024/04/11 11:56:05;;;;;;;8.93;5.70;;;;;;;;;;6595563;21;20223;-89
2024/04/11 11:58:35;;;;;;;3.57;2.37;;;;;;;;;;6595755;21;20266;-89
2024/04/11 12:01:19;;;;;;;2.97;2.20;;;;;;;;;;6595766;21;20228;-90
2024/04/11 12:03:55;;;;;;;4.90;2.60;;;;;;;;;;6638718;21;20245;-90
2024/04/11 12:06:25;;;;;;;4.17;2.43;;;;;;;;;;6595487;21;20677;-89
2024/04/11 12:08:54;;;;;;;3.07;2.17;;;;;;;;;;6595187;21;20276;-90
2024/04/11 12:11:28;;;;;;;2.40;1.90;;;;;;;;;;6595223;21;20334;-89
2024/04/11 12:14:02;;;;;;;3.53;2.53;;;;;;;;;;6595078;21;20244;-89
2024/04/11 12:16:40;;;;;;;3.37;2.50;;;;;;;;;;6639200;21;20224;-90
2024/04/11 12:19:09;;;;;;;3.60;2.40;;;;;;;;;;6594528;21;20591;-83
2024/04/11 12:21:44;;;;;;;3.70;2.37;;;;;;;;;;6682064;21;20332;-83
2024/04/11 12:24:14;;;;;;;3.40;2.10;;;;;;;;;;6683375;21;20360;-83
2024/04/11 12:26:42;;;;;;;4.13;3.47;;;;;;;;;;6682728;21;20224;-83
2024/04/11 12:29:11;;;;;;;4.53;4.13;;;;;;;;;;6682518;21;20222;-83
2024/04/11 12:31:38;;;;;;;3.20;2.40;;;;;;;;;;6682460;21;21485;-83
2024/04/11 12:34:09;;;;;;;3.50;2.20;;;;;;;;;;6682648;21;20695;-83
2024/04/11 12:39:32;;;;;;;3.10;2.20;;;;;;;;;;6682899;21;20493;-83
2024/04/11 12:42:07;;;;;;;3.00;2.10;;;;;;;;;;6682448;21;20739;-83
2024/04/11 12:44:38;;;;;;;4.43;2.43;;;;;;;;;;6636038;21;20534;-83
2024/04/11 12:47:15;;;;;;;4.30;2.30;;;;;;;;;;6682327;21;20219;-83
2024/04/11 12:49:49;;;;;;;3.57;2.30;;;;;;;;;;6682343;21;20223;-83
2024/04/11 12:52:23;;;;;;;3.67;2.10;;;;;;;;;;6681967;21;20735;-82
2024/04/11 12:55:06;;;;;;;3.73;1.90;;;;;;;;;;6682995;21;20253;-83
2024/04/11 12:57:37;;;;;;;4.03;2.10;;;;;;;;;;6682479;21;20264;-83
2024/04/11 13:00:32;;;;;;;3.47;1.90;;;;;;;;;;6682747;21;20224;-82
2024/04/11 13:05:57;;;;;;;3.00;2.20;;;;;;;;;;6516379;21;20342;-83
2024/04/11 13:08:29;;;;;;;3.90;2.37;;;;;;;;;;6628553;21;20227;-83
2024/04/11 13:11:13;;;;;;;4.63;2.50;;;;;;;;;;6628239;21;20226;-83
2024/04/11 13:13:42;;;;;;;2.53;1.93;;;;;;;;;;6628708;21;20224;-83
2024/04/11 13:16:10;;;;;;;3.27;2.10;;;;;;;;;;6627925;21;20228;-83
2024/04/11 13:18:38;;;;;;;3.23;2.00;;;;;;;;;;6628362;21;20220;-83
2024/04/11 13:21:57;;;;;;;3.57;2.03;;;;;;;;;;6628431;21;20285;-83
2024/04/11 13:23:59;;;;;;;3.07;1.97;;;;;;;;;;6610714;21;20269;-83
2024/04/11 13:26:35;;;;;;;5.20;2.03;;;;;;;;;;6628501;21;20504;-83
2024/04/11 13:29:07;;;;;;;3.10;2.00;;;;;;;;;;6628657;21;20636;-83
2024/04/11 13:31:36;;;;;;;2.40;1.90;;;;;;;;;;6628548;21;20222;-83
2024/04/11 13:34:07;;;;;;;3.93;1.80;;;;;;;;;;6628621;21;20231;-82
2024/04/11 13:36:34;;;;;;;3.77;1.83;;;;;;;;;;6628203;21;20226;-82
2024/04/11 13:39:05;;;;;;;3.37;2.00;;;;;;;;;;6628609;21;20225;-83
2024/04/11 13:41:49;;;;;;;2.40;1.90;;;;;;;;;;6628519;21;20222;-83
2024/04/11 13:44:22;;;;;;;4.80;1.90;;;;;;;;;;6628346;21;20780;-83
2024/04/11 13:46:53;;;;;;;3.83;2.03;;;;;;;;;;6628194;21;20222;-83
2024/04/11 13:49:37;;;;;;;5.17;2.00;;;;;;;;;;6628413;21;20258;-83
2024/04/11 13:52:26;;;;;;;3.97;1.80;;;;;;;;;;6627924;21;20274;-82
2024/04/11 13:54:59;;;;;;;3.47;1.73;;;;;;;;;;6627927;21;20237;-83
2024/04/11 13:57:32;;;;;;;2.47;2.07;;;;;;;;;;6625609;21;20222;-82
2024/04/11 14:00:09;;;;;;;2.80;1.70;;;;;;;;;;6626702;21;20221;-82
2024/04/11 14:02:46;;;;;;;2.63;1.77;;;;;;;;;;6627597;21;20237;-82
2024/04/11 14:05:29;;;;;;;2.17;1.53;;;;;;;;;;6628295;21;20331;-82
2024/04/11 14:08:00;;;;;;;4.97;4.30;;;;;;;;;;6628284;21;20277;-82
2024/04/11 14:10:28;;;;;;;3.13;2.20;;;;;;;;;;6626403;21;20223;-83
2024/04/11 14:12:55;;;;;;;5.53;2.13;;;;;;;;;;6627976;21;20279;-82
2024/04/11 14:15:23;;;;;;;4.17;1.90;;;;;;;;;;6628065;21;20233;-82
2024/04/11 14:17:55;;;;;;;3.47;1.67;;;;;;;;;;6627749;21;20312;-83
2024/04/11 14:20:31;;;;;;;6.23;1.90;;;;;;;;;;6628251;21;20292;-82
2024/04/11 14:23:14;;;;;;;4.00;1.83;;;;;;;;;;6628152;21;20229;-82
2024/04/11 14:26:04;;;;;;;3.27;2.03;;;;;;;;;;6627988;21;20226;-83
2024/04/11 14:28:43;;;;;;;3.30;1.80;;;;;;;;;;6629332;21;20701;-83
2024/04/11 14:31:11;;;;;;;6.10;2.03;;;;;;;;;;6630385;21;20274;-83
2024/04/11 14:36:28;;;;;;;2.20;1.80;;;;;;;;;;6630076;21;20283;-82
2024/04/11 14:39:05;;;;;;;5.37;1.90;;;;;;;;;;6627770;21;20217;-82
2024/04/11 14:41:35;;;;;;;5.10;2.10;;;;;;;;;;6629117;21;20699;-83
2024/04/11 14:44:08;;;;;;;2.73;1.90;;;;;;;;;;6630096;21;20260;-82
2024/04/11 14:46:37;;;;;;;2.90;1.87;;;;;;;;;;6629952;21;20222;-82
2024/04/11 14:49:07;;;;;;;4.03;2.07;;;;;;;;;;6630020;21;20282;-82
2024/04/11 14:51:44;;;;;;;4.47;1.90;;;;;;;;;;6630019;21;20269;-83
2024/04/11 14:54:25;;;;;;;2.60;1.87;;;;;;;;;;6630040;21;20271;-83
2024/04/11 14:56:58;;;;;;;8.03;4.57;;;;;;;;;;6629858;21;20620;-82
2024/04/11 14:59:30;;;;;;;3.93;2.20;;;;;;;;;;6629957;21;20238;-82
2024/04/11 15:01:58;;;;;;;3.27;1.90;;;;;;;;;;6629487;21;20226;-82
2024/04/11 15:04:28;;;;;;;3.73;2.27;;;;;;;;;;6629955;21;20228;-82
2024/04/11 15:06:57;;;;;;;3.73;2.00;;;;;;;;;;6629459;21;20223;-82
2024/04/11 15:09:29;;;;;;;2.00;1.73;;;;;;;;;;6629653;21;20303;-82
2024/04/11 15:11:57;;;;;;;3.43;1.83;;;;;;;;;;6629733;21;20219;-82
2024/04/11 15:14:26;;;;;;;3.07;1.80;;;;;;;;;;6629750;21;20224;-83
2024/04/11 15:17:17;;;;;;;4.90;1.83;;;;;;;;;;6629952;21;20460;-82
2024/04/11 15:19:47;;;;;;;3.03;1.67;;;;;;;;;;6629002;21;20261;-82
2024/04/11 15:22:22;;;;;;;3.00;2.20;;;;;;;;;;6626789;21;20231;-82
2024/04/11 15:24:52;;;;;;;2.47;1.90;;;;;;;;;;6628794;21;20225;-83
2024/04/11 15:27:19;;;;;;;4.00;1.90;;;;;;;;;;6624222;21;20243;-82
2024/04/11 15:29:57;;;;;;;3.03;1.80;;;;;;;;;;6627455;21;20405;-82
2024/04/11 15:32:32;;;;;;;3.10;1.73;;;;;;;;;;6629302;21;20227;-82
2024/04/11 15:35:07;;;;;;;3.03;1.70;;;;;;;;;;6629469;21;20297;-82
2024/04/11 15:40:24;;;;;;;3.83;2.20;;;;;;;;;;6628818;21;20281;-82
2024/04/11 15:42:58;;;;;;;2.40;1.88;;;;;;;;;;6626661;21;20324;-82
2024/04/11 15:45:29;;;;;;;3.00;1.90;;;;;;;;;;6629096;21;20266;-82
2024/04/11 15:48:00;;;;;;;2.25;1.58;;;;;;;;;;6627938;21;20452;-82
2024/04/11 15:50:33;;;;;;;4.67;1.80;;;;;;;;;;6627821;21;20268;-82
2024/04/11 15:53:05;;;;;;;2.90;1.80;;;;;;;;;;6628357;21;20231;-82
2024/04/11 15:55:49;;;;;;;4.90;2.00;;;;;;;;;;6629118;21;20775;-82
2024/04/11 15:58:17;;;;;;;1.93;1.50;;;;;;;;;;6628451;21;20337;-82
2024/04/11 16:00:51;;;;;;;3.87;1.83;;;;;;;;;;6628946;21;20337;-82
2024/04/11 16:03:20;;;;;;;3.10;1.77;;;;;;;;;;6628232;21;20324;-82
2024/04/11 16:06:01;;;;;;;2.37;1.90;;;;;;;;;;6628924;21;20224;-82
2024/04/11 16:08:34;;;;;;;2.77;1.90;;;;;;;;;;6628691;21;20340;-82
2024/04/11 16:11:03;;;;;;;3.20;1.70;;;;;;;;;;6628851;21;20289;-82
2024/04/11 16:13:36;;;;;;;2.87;1.77;;;;;;;;;;6628534;21;20270;-83
2024/04/11 16:16:05;;;;;;;3.57;1.70;;;;;;;;;;6626710;21;20271;-82
2024/04/11 16:18:35;;;;;;;2.60;1.80;;;;;;;;;;6628800;21;20265;-82